world map with KLR marked

KLR - Airport

This information may not be accurate or current and is not valid for navigation or flight planning. No warranty of fitness for any purpose is made or implied.

flag of Sweden

Donate via PayPal

Additional information is available on the NEW Great Circle Mapper

Location
City:  Kalmar, Kalmar län, Sweden
ICAO / IATA:ESMQ / KLR

Details
Type:Airport (Aerodrome, Airfield)
Use:Public/Civil
Latitude:56°41'08"N (56.685531)
Longitude:16°17'15"E (16.287578)
Datum:WGS 1984
Elevation:17 ft (5 m)
Runways:2
Longest:6726 × 148 ft (2050 × 45 m)

Time
Timezone:UTC+1 (DST+4)
Local Time:

Weather
METAR:ESMQ  041350Z 16006KT 9999 BKN002 M01/M01 Q1021
TAF:ESMQ  (expired)

Related Locations
Nearby:
Farthest:CHT: 11382 mi / 18317 km
Waitangi [Tuuta], CIT, NZ

Find:

   beyond  
but within

Other Information
Maps:
Sources:

  


 


Great Circle Mapper   Great Circle Mapper
Great Circle Mapper FAQ   Great Circle Mapper FAQ
  Karl's Home Page
KLS²   KLS² Home
   GC on Facebook
Airlines of the World   Airlines of the World
Donate via PayPal


Copyright © 2004-2024, Karl L. Swartz. All rights reserved.
All trademarks mentioned herein belong to their respective owners.

Please see credits for attribution and copyright information.

Karl Swartz <karl@kls2.com>
  Powered by FreeBSD
Valid HTML 4.01!
Labeled with ICRA
hCard Microformat
Geo Microformat